KMMH

Mammoth Yosemite Airport

Mammoth Lakes, California, USA
METAR KMMH 271155Z AUTO 00000KT 10SM SCT040 02/02 A3014 RMK AO2 T00240015 10068 20016
Observed Flight Rules
May-27 @ 11:55 UTC (11 minutes ago) Visual Flight Rules
Visibility Clouds
10 miles
  • Scattered at 4,000' AGL
Temperatures Readings
Current 2°C / 36°F
Dewpoint 2°C / 36°F
Humidity 100%
Altimeter 30.14" Hg
Pressure 1021 hPa
Elevation 2173
METAR KMMH 271155Z AUTO 00000KT 10SM SCT040 02/02 A3014 RMK AO2 T00240015 10068 20016
Observed Flight Rules
May-27 @ 11:55 UTC
(11 minutes ago)
VFR
Clouds
  • Scattered at 4,000' AGL
Temperature Dewpoint
2°C / 36°F 2°C / 36°F
Humidity Altimeter Pressure
100% 30.14" Hg 1021 hPa